createdAt,value
2024-02-01T00:01:16.449Z,356.05
2024-02-01T00:04:25.582Z,341.42
2024-02-01T00:07:31.308Z,332.22
2024-02-01T00:10:37.777Z,319.76
2024-02-01T00:13:43.461Z,317.08
2024-02-01T00:16:50.025Z,298.97
2024-02-01T00:19:58.412Z,287.30
2024-02-01T00:23:04.943Z,289.58
2024-02-01T00:26:10.671Z,279.34
2024-02-01T00:29:17.167Z,270.95
2024-02-01T00:32:22.843Z,271.35
2024-02-01T00:35:32.014Z,278.95
2024-02-01T00:38:38.236Z,269.45
2024-02-01T00:41:44.835Z,268.68
2024-02-01T00:44:50.614Z,272.45
2024-02-01T00:47:57.349Z,259.89
2024-02-01T00:51:07.825Z,256.17
2024-02-01T00:54:14.465Z,255.61
2024-02-01T00:57:20.304Z,258.57
2024-02-01T01:00:26.995Z,267.36
2024-02-01T01:03:33.066Z,259.41
2024-02-01T01:06:42.372Z,266.41
2024-02-01T01:09:48.192Z,260.56
2024-02-01T01:12:54.792Z,262.61
2024-02-01T01:16:00.532Z,265.48
2024-02-01T01:19:07.388Z,264.10
2024-02-01T01:22:15.863Z,259.46
2024-02-01T01:25:22.746Z,261.60
2024-02-01T01:28:28.459Z,255.86
2024-02-01T01:31:35.225Z,292.68
2024-02-01T01:34:40.935Z,265.12
2024-02-01T01:37:50.100Z,253.98
2024-02-01T01:40:55.752Z,245.09
2024-02-01T01:44:02.446Z,256.51
2024-02-01T01:47:09.009Z,262.59
2024-02-01T01:50:16.266Z,264.27
2024-02-01T01:53:26.159Z,260.68
2024-02-01T01:56:33.410Z,268.91
2024-02-01T01:59:39.425Z,261.05
2024-02-01T02:02:47.879Z,256.69
2024-02-01T02:05:53.895Z,251.83
2024-02-01T02:09:04.372Z,256.62
2024-02-01T02:12:12.149Z,249.79
2024-02-01T02:15:18.819Z,250.81
2024-02-01T02:18:24.658Z,247.14
2024-02-01T02:21:34.672Z,250.14
2024-02-01T02:24:43.198Z,247.91
2024-02-01T02:27:49.784Z,242.48
2024-02-01T02:30:57.355Z,248.35
2024-02-01T02:34:03.976Z,250.85
2024-02-01T02:37:10.240Z,248.52
2024-02-01T02:40:21.958Z,243.04
2024-02-01T02:43:27.619Z,237.26
2024-02-01T02:46:34.786Z,237.97
2024-02-01T02:49:40.541Z,243.48
2024-02-01T02:52:48.851Z,243.38
2024-02-01T02:55:57.346Z,238.25
2024-02-01T02:59:03.899Z,243.22
2024-02-01T03:02:10.407Z,234.72
2024-02-01T03:05:17.064Z,232.91
2024-02-01T03:08:23.051Z,231.43
2024-02-01T03:11:32.418Z,231.10
2024-02-01T03:14:40.981Z,220.27
2024-02-01T03:17:47.700Z,231.71
2024-02-01T03:20:53.508Z,229.62
2024-02-01T03:24:02.478Z,221.20
2024-02-01T03:27:13.691Z,228.99
2024-02-01T03:30:21.415Z,224.62
2024-02-01T03:33:27.347Z,222.69
2024-02-01T03:36:34.334Z,221.96
2024-02-01T03:39:40.119Z,217.55
2024-02-01T03:42:49.587Z,222.30
2024-02-01T03:45:55.208Z,223.83
2024-02-01T03:49:01.920Z,222.29
2024-02-01T03:52:09.125Z,218.87
2024-02-01T03:55:21.626Z,229.45
2024-02-01T03:58:30.266Z,224.90
2024-02-01T04:01:36.915Z,222.93
2024-02-01T04:04:46.646Z,226.03
2024-02-01T04:07:53.388Z,231.98
2024-02-01T04:10:59.670Z,235.20
2024-02-01T04:14:08.864Z,238.25
2024-02-01T04:17:14.652Z,240.03
2024-02-01T04:20:21.660Z,242.79
2024-02-01T04:23:27.353Z,245.76
2024-02-01T04:26:33.996Z,253.53
2024-02-01T04:29:42.335Z,250.77
2024-02-01T04:32:50.002Z,248.92
2024-02-01T04:35:56.005Z,248.00
2024-02-01T04:39:05.026Z,250.56
2024-02-01T04:42:19.347Z,243.08
2024-02-01T04:45:28.564Z,252.92
2024-02-01T04:48:35.659Z,250.17
2024-02-01T04:51:43.865Z,250.76
2024-02-01T04:54:49.729Z,259.51
2024-02-01T04:57:56.178Z,257.30
2024-02-01T05:01:11.997Z,258.84
2024-02-01T05:04:20.458Z,269.69
2024-02-01T05:07:26.253Z,279.20
2024-02-01T05:10:33.783Z,284.72
2024-02-01T05:13:39.604Z,291.40
2024-02-01T05:16:50.527Z,280.39
2024-02-01T05:20:00.647Z,269.72
2024-02-01T05:23:07.813Z,266.47
2024-02-01T05:26:15.335Z,267.38
2024-02-01T05:29:23.338Z,264.98
2024-02-01T05:32:31.793Z,267.15
2024-02-01T05:35:38.510Z,269.79
2024-02-01T05:38:44.481Z,270.41
2024-02-01T05:41:51.408Z,283.17
2024-02-01T05:44:57.022Z,304.80
2024-02-01T05:48:06.306Z,340.58
2024-02-01T05:51:12.124Z,389.05
2024-02-01T05:54:19.331Z,357.88
2024-02-01T05:57:25.128Z,327.36
2024-02-01T06:00:31.784Z,319.48
2024-02-01T06:03:40.165Z,309.89
2024-02-01T06:06:49.904Z,299.04
2024-02-01T06:09:56.189Z,302.51
2024-02-01T06:13:02.650Z,297.89
2024-02-01T06:16:10.719Z,308.66
2024-02-01T06:19:20.230Z,305.49
2024-02-01T06:22:26.080Z,299.12
2024-02-01T06:25:32.652Z,302.83
2024-02-01T06:28:38.497Z,304.28
2024-02-01T06:31:45.006Z,301.30
2024-02-01T06:34:55.929Z,311.06
2024-02-01T06:38:17.209Z,306.51
2024-02-01T06:41:29.791Z,304.96
2024-02-01T06:44:45.346Z,311.79
2024-02-01T06:47:52.312Z,317.78
2024-02-01T06:51:11.946Z,317.47
2024-02-01T06:54:40.113Z,309.65
2024-02-01T06:57:46.680Z,331.40
2024-02-01T07:01:03.992Z,342.62
2024-02-01T07:04:18.010Z,351.28
2024-02-01T07:07:31.289Z,353.73
2024-02-01T07:10:44.930Z,350.64
2024-02-01T07:13:59.725Z,353.35
2024-02-01T07:17:28.689Z,349.55
2024-02-01T07:20:48.630Z,364.68
2024-02-01T07:24:08.907Z,364.21
2024-02-01T07:27:29.252Z,367.12
2024-02-01T07:30:48.185Z,352.71
2024-02-01T07:34:06.886Z,356.94
2024-02-01T07:37:25.823Z,366.75
2024-02-01T07:40:46.630Z,364.67
2024-02-01T07:44:05.598Z,355.97
2024-02-01T07:47:23.746Z,357.79
2024-02-01T07:50:42.628Z,353.05
2024-02-01T07:54:00.850Z,356.96
2024-02-01T07:57:23.498Z,357.43
2024-02-01T08:00:35.679Z,369.08
2024-02-01T08:04:03.377Z,351.38
2024-02-01T08:07:21.680Z,356.78
2024-02-01T08:10:28.376Z,368.81
2024-02-01T08:13:36.912Z,358.07
2024-02-01T08:16:44.602Z,379.96
2024-02-01T08:19:50.583Z,364.63
2024-02-01T08:22:57.206Z,414.00
2024-02-01T08:26:04.487Z,363.24
2024-02-01T08:29:15.671Z,350.39
2024-02-01T08:32:21.581Z,348.93
2024-02-01T08:35:28.286Z,324.37
2024-02-01T08:38:35.716Z,332.95
2024-02-01T08:41:43.974Z,316.50
2024-02-01T08:44:52.253Z,301.03
2024-02-01T08:48:02.765Z,302.90
2024-02-01T08:51:09.746Z,297.22
2024-02-01T08:54:16.662Z,299.82
2024-02-01T08:57:23.218Z,328.66
2024-02-01T09:00:33.784Z,318.97
2024-02-01T09:03:40.999Z,299.70
2024-02-01T09:06:56.801Z,303.04
2024-02-01T09:10:11.287Z,298.75
2024-02-01T09:13:25.701Z,294.22
2024-02-01T09:16:34.669Z,290.72
2024-02-01T09:19:43.024Z,283.19
2024-02-01T09:22:50.414Z,286.17
2024-02-01T09:25:57.018Z,288.33
2024-02-01T09:29:13.099Z,311.09
2024-02-01T09:32:23.935Z,299.45
2024-02-01T09:35:29.699Z,304.22
2024-02-01T09:38:36.272Z,305.31
2024-02-01T09:41:42.481Z,306.76
2024-02-01T09:44:49.688Z,304.96
2024-02-01T09:47:59.473Z,300.08
2024-02-01T09:51:06.103Z,302.08
2024-02-01T09:54:13.858Z,291.64
2024-02-01T09:57:20.998Z,279.17
2024-02-01T10:00:29.274Z,277.49
2024-02-01T10:03:38.629Z,276.49
2024-02-01T10:06:44.519Z,272.95
2024-02-01T10:09:53.663Z,280.74
2024-02-01T10:13:00.345Z,329.06
2024-02-01T10:16:14.881Z,397.42
2024-02-01T10:19:23.944Z,397.13
2024-02-01T10:22:34.000Z,407.53
2024-02-01T10:25:43.949Z,342.53
2024-02-01T10:28:51.920Z,398.59
2024-02-01T10:32:09.146Z,444.28
2024-02-01T10:35:23.640Z,464.83
2024-02-01T10:38:31.451Z,462.00
2024-02-01T10:41:49.921Z,287.04
2024-02-01T10:45:01.546Z,288.74
2024-02-01T10:48:16.330Z,287.44
2024-02-01T10:51:28.070Z,264.18
2024-02-01T10:54:38.789Z,290.08
2024-02-01T10:57:47.525Z,325.13
2024-02-01T11:00:57.327Z,312.01
2024-02-01T11:04:12.725Z,318.53
2024-02-01T11:07:29.596Z,340.05
2024-02-01T11:10:36.261Z,328.57
2024-02-01T11:13:43.798Z,326.12
2024-02-01T11:16:53.300Z,331.04
2024-02-01T11:20:00.326Z,323.99
2024-02-01T11:23:12.434Z,310.53
2024-02-01T11:26:21.013Z,320.94
2024-02-01T11:29:36.696Z,346.15
2024-02-01T11:32:48.450Z,346.42
2024-02-01T11:35:54.824Z,364.59
2024-02-01T11:39:04.254Z,374.97
2024-02-01T11:42:17.133Z,369.13
2024-02-01T11:45:27.752Z,379.19
2024-02-01T11:48:34.187Z,370.63
2024-02-01T11:51:42.133Z,345.71
2024-02-01T11:54:55.372Z,330.37
2024-02-01T11:58:02.768Z,307.35
2024-02-01T12:01:13.241Z,297.05
2024-02-01T12:04:26.896Z,286.10
2024-02-01T12:07:32.934Z,276.00
2024-02-01T12:10:48.031Z,261.88
2024-02-01T12:13:56.217Z,257.67
2024-02-01T12:17:05.467Z,248.22
2024-02-01T12:20:14.102Z,250.85
2024-02-01T12:23:21.309Z,255.94
2024-02-01T12:26:31.621Z,273.27
2024-02-01T12:29:38.622Z,257.41
2024-02-01T12:32:45.759Z,264.09
2024-02-01T12:35:52.348Z,267.97
2024-02-01T12:38:58.169Z,279.48
2024-02-01T12:42:09.226Z,265.75
2024-02-01T12:45:19.130Z,266.34
2024-02-01T12:48:26.091Z,277.99
2024-02-01T12:51:31.916Z,281.19
2024-02-01T12:54:39.922Z,280.43
2024-02-01T12:57:49.892Z,288.60
2024-02-01T13:00:57.120Z,289.56
2024-02-01T13:04:03.313Z,300.87
2024-02-01T13:07:13.397Z,317.42
2024-02-01T13:10:19.332Z,319.27
2024-02-01T13:13:28.523Z,315.51
2024-02-01T13:16:34.261Z,321.67
2024-02-01T13:19:42.189Z,310.65
2024-02-01T13:22:48.299Z,308.69
2024-02-01T13:25:55.797Z,328.53
2024-02-01T13:29:04.440Z,330.00
2024-02-01T13:32:11.308Z,343.57
2024-02-01T13:35:17.438Z,335.31
2024-02-01T13:38:27.764Z,319.03
2024-02-01T13:41:33.718Z,317.88
2024-02-01T13:44:43.046Z,329.82
2024-02-01T13:47:53.370Z,340.22
2024-02-01T13:51:05.137Z,357.32
2024-02-01T13:54:11.328Z,348.92
2024-02-01T13:57:18.023Z,357.32
2024-02-01T14:00:30.015Z,376.33
2024-02-01T14:03:36.831Z,461.04
2024-02-01T14:06:42.635Z,688.07
2024-02-01T14:09:49.106Z,449.26
2024-02-01T14:12:54.882Z,335.78
2024-02-01T14:16:04.670Z,324.43
2024-02-01T14:19:10.566Z,338.14
2024-02-01T14:22:17.495Z,399.12
2024-02-01T14:25:26.175Z,345.89
2024-02-01T14:28:33.232Z,395.35
2024-02-01T14:31:41.824Z,376.24
2024-02-01T14:34:49.044Z,348.54
2024-02-01T14:37:56.699Z,330.42
2024-02-01T14:41:03.565Z,346.08
2024-02-01T14:44:09.500Z,351.46
2024-02-01T14:47:18.652Z,312.70
2024-02-01T14:50:24.313Z,471.82
2024-02-01T14:53:30.854Z,364.68
2024-02-01T14:56:37.205Z,323.45
2024-02-01T14:59:43.778Z,421.43
2024-02-01T15:02:53.369Z,697.17
2024-02-01T15:06:00.189Z,472.27
2024-02-01T15:09:08.242Z,655.92
2024-02-01T15:12:15.153Z,260.42
2024-02-01T15:15:22.857Z,326.59
2024-02-01T15:18:33.584Z,872.57
2024-02-01T15:21:40.990Z,1449.12
2024-02-01T15:24:47.487Z,3308.20
2024-02-01T15:27:56.032Z,2547.27
2024-02-01T15:31:03.598Z,2421.16
2024-02-01T15:34:17.056Z,1775.58
2024-02-01T15:37:23.871Z,1420.64
2024-02-01T15:40:29.958Z,1213.11
2024-02-01T15:43:37.651Z,688.33
2024-02-01T15:46:44.495Z,1759.61
2024-02-01T15:49:57.346Z,815.09
2024-02-01T15:53:03.761Z,676.66
2024-02-01T15:56:11.072Z,685.73
2024-02-01T15:59:16.773Z,823.93
2024-02-01T16:02:23.285Z,364.05
2024-02-01T16:06:05.497Z,301.71
2024-02-01T16:09:14.378Z,265.69
2024-02-01T16:12:23.534Z,245.01
2024-02-01T16:15:41.205Z,253.83
2024-02-01T16:18:47.315Z,211.33
2024-02-01T16:21:57.190Z,201.00
2024-02-01T16:25:03.339Z,195.08
2024-02-01T16:28:10.959Z,264.20
2024-02-01T16:31:19.624Z,1642.25
2024-02-01T16:34:47.328Z,1148.98
2024-02-01T16:37:55.714Z,996.73
2024-02-01T16:41:02.762Z,304.01
2024-02-01T16:44:10.074Z,225.70
2024-02-01T16:47:29.482Z,241.09
2024-02-01T16:50:49.944Z,267.49
2024-02-01T16:53:59.257Z,278.00
2024-02-01T16:57:08.752Z,302.43
2024-02-01T17:00:18.978Z,324.19
2024-02-01T17:03:29.016Z,269.07
2024-02-01T17:06:38.311Z,261.03
2024-02-01T17:09:46.827Z,379.67
2024-02-01T17:12:53.390Z,398.80
2024-02-01T17:15:59.711Z,345.97
2024-02-01T17:19:06.836Z,388.54
2024-02-01T17:22:24.744Z,316.28
2024-02-01T17:26:20.552Z,255.24
2024-02-01T17:29:30.483Z,230.30
2024-02-01T17:32:39.827Z,260.56
2024-02-01T17:35:45.695Z,519.73
2024-02-01T17:38:53.288Z,390.21
2024-02-01T17:42:06.690Z,300.33
2024-02-01T17:45:40.849Z,217.95
2024-02-01T17:49:01.244Z,194.91
2024-02-01T17:52:27.359Z,207.04
2024-02-01T17:55:56.988Z,237.00
2024-02-01T17:59:08.960Z,241.79
2024-02-01T18:02:25.570Z,230.88
2024-02-01T18:05:35.549Z,291.86
2024-02-01T18:08:45.769Z,267.95
2024-02-01T18:11:54.987Z,227.16
2024-02-01T18:15:05.815Z,221.83
2024-02-01T18:18:14.394Z,208.20
2024-02-01T18:21:24.415Z,239.41
2024-02-01T18:24:43.573Z,246.51
2024-02-01T18:27:53.130Z,227.20
2024-02-01T18:31:05.177Z,224.05
2024-02-01T18:34:32.242Z,269.84
2024-02-01T18:37:38.902Z,251.45
2024-02-01T18:40:52.648Z,244.69
2024-02-01T18:44:25.812Z,291.55
2024-02-01T18:47:41.770Z,279.45
2024-02-01T18:50:49.093Z,245.50
2024-02-01T18:53:59.782Z,225.48
2024-02-01T18:57:12.463Z,371.90
2024-02-01T19:00:44.850Z,306.06
2024-02-01T19:04:17.158Z,241.79
2024-02-01T19:07:23.269Z,265.54
2024-02-01T19:10:44.947Z,235.73
2024-02-01T19:14:04.435Z,286.44
2024-02-01T19:17:27.614Z,293.55
2024-02-01T19:20:36.018Z,267.28
2024-02-01T19:23:43.415Z,201.57
2024-02-01T19:26:50.590Z,184.80
2024-02-01T19:29:57.419Z,159.67
2024-02-01T19:33:05.577Z,182.61
2024-02-01T19:36:33.855Z,183.25
2024-02-01T19:39:42.086Z,177.81
2024-02-01T19:42:50.304Z,172.45
2024-02-01T19:45:56.177Z,172.76
2024-02-01T19:49:03.197Z,145.89
2024-02-01T19:52:11.823Z,163.71
2024-02-01T19:55:29.199Z,177.13
2024-02-01T19:58:35.090Z,153.35
2024-02-01T20:01:41.808Z,141.15
2024-02-01T20:04:47.996Z,137.43
2024-02-01T20:07:57.298Z,143.79
2024-02-01T20:11:03.885Z,148.78
2024-02-01T20:14:13.012Z,172.48
2024-02-01T20:17:20.708Z,235.95
2024-02-01T20:20:27.745Z,181.01
2024-02-01T20:23:36.967Z,193.89
2024-02-01T20:26:44.409Z,178.96
2024-02-01T20:29:52.109Z,180.65
2024-02-01T20:33:02.923Z,187.92
2024-02-01T20:36:31.077Z,169.52
2024-02-01T20:39:44.037Z,228.78
2024-02-01T20:42:49.866Z,269.77
2024-02-01T20:45:59.663Z,195.19
2024-02-01T20:49:07.372Z,184.21
2024-02-01T20:52:23.919Z,170.94
2024-02-01T20:55:35.357Z,155.89
2024-02-01T20:58:58.119Z,148.51
2024-02-01T21:02:04.937Z,173.85
2024-02-01T21:05:37.032Z,150.75
2024-02-01T21:08:43.968Z,152.33
2024-02-01T21:11:56.187Z,159.53
2024-02-01T21:15:02.084Z,155.79
2024-02-01T21:18:16.262Z,177.82
2024-02-01T21:21:23.725Z,183.84
2024-02-01T21:24:31.196Z,146.09
2024-02-01T21:27:40.074Z,160.16
2024-02-01T21:30:49.137Z,136.02
2024-02-01T21:33:58.243Z,120.89
2024-02-01T21:37:12.564Z,104.60
2024-02-01T21:40:24.029Z,105.90
2024-02-01T21:43:34.697Z,105.94
2024-02-01T21:46:40.895Z,106.40
2024-02-01T21:49:47.757Z,103.40
2024-02-01T21:52:56.014Z,113.48
2024-02-01T21:56:02.837Z,106.03
2024-02-01T21:59:16.261Z,92.16
2024-02-01T22:02:23.266Z,96.11
2024-02-01T22:05:29.237Z,94.36
2024-02-01T22:08:36.180Z,103.12
2024-02-01T22:11:42.440Z,106.00
2024-02-01T22:14:51.799Z,118.11
2024-02-01T22:17:57.679Z,107.47
2024-02-01T22:21:04.382Z,89.99
2024-02-01T22:24:10.830Z,95.00
2024-02-01T22:27:18.085Z,101.71
2024-02-01T22:30:27.826Z,100.08
2024-02-01T22:33:34.777Z,97.32
2024-02-01T22:36:40.572Z,95.76
2024-02-01T22:39:47.350Z,95.08
2024-02-01T22:42:53.229Z,97.49
2024-02-01T22:46:02.601Z,84.39
2024-02-01T22:49:08.476Z,82.23
2024-02-01T22:52:16.070Z,79.16
2024-02-01T22:55:21.954Z,76.32
2024-02-01T22:58:28.725Z,72.28
2024-02-01T23:01:37.207Z,79.42
2024-02-01T23:04:44.181Z,88.52
2024-02-01T23:07:50.664Z,82.06
2024-02-01T23:10:58.303Z,81.01
2024-02-01T23:14:04.754Z,86.39
2024-02-01T23:17:13.965Z,83.36
2024-02-01T23:20:21.130Z,85.34
2024-02-01T23:23:28.635Z,103.23
2024-02-01T23:26:36.605Z,79.62
2024-02-01T23:29:45.433Z,90.29
2024-02-01T23:32:54.292Z,94.30
2024-02-01T23:36:01.807Z,100.25
2024-02-01T23:39:08.870Z,93.49
2024-02-01T23:42:15.660Z,95.40
2024-02-01T23:45:22.684Z,84.22
2024-02-01T23:48:32.489Z,78.01
2024-02-01T23:51:39.067Z,105.95
2024-02-01T23:54:46.282Z,161.95
2024-02-01T23:57:52.534Z,81.74
